sensor_id;sensor_type;location;lat;lon;timestamp;P1;durP1;ratioP1;P2;durP2;ratioP2
22603;SDS011;11469;49.024;8.246;2023-01-19T00:01:46;32.28;;;16.05;;
22603;SDS011;11469;49.024;8.246;2023-01-19T00:04:11;31.02;;;15.00;;
22603;SDS011;11469;49.024;8.246;2023-01-19T00:06:37;30.15;;;15.85;;
22603;SDS011;11469;49.024;8.246;2023-01-19T00:09:02;30.15;;;16.02;;
22603;SDS011;11469;49.024;8.246;2023-01-19T00:11:28;34.53;;;14.85;;
22603;SDS011;11469;49.024;8.246;2023-01-19T00:13:53;29.45;;;14.93;;
22603;SDS011;11469;49.024;8.246;2023-01-19T00:16:19;31.90;;;15.00;;
22603;SDS011;11469;49.024;8.246;2023-01-19T00:18:47;30.25;;;15.50;;
22603;SDS011;11469;49.024;8.246;2023-01-19T00:21:14;26.25;;;14.18;;
22603;SDS011;11469;49.024;8.246;2023-01-19T00:23:40;28.40;;;13.73;;
22603;SDS011;11469;49.024;8.246;2023-01-19T00:26:06;24.80;;;13.63;;
22603;SDS011;11469;49.024;8.246;2023-01-19T00:28:32;24.13;;;12.77;;
22603;SDS011;11469;49.024;8.246;2023-01-19T00:30:58;30.85;;;14.85;;
22603;SDS011;11469;49.024;8.246;2023-01-19T00:33:24;25.38;;;13.07;;
22603;SDS011;11469;49.024;8.246;2023-01-19T00:35:50;29.23;;;14.45;;
22603;SDS011;11469;49.024;8.246;2023-01-19T00:38:21;29.83;;;14.30;;
22603;SDS011;11469;49.024;8.246;2023-01-19T00:40:47;24.83;;;13.98;;
22603;SDS011;11469;49.024;8.246;2023-01-19T00:43:13;28.67;;;14.57;;
22603;SDS011;11469;49.024;8.246;2023-01-19T00:45:38;23.85;;;12.80;;
22603;SDS011;11469;49.024;8.246;2023-01-19T00:48:04;32.80;;;13.68;;
22603;SDS011;11469;49.024;8.246;2023-01-19T00:50:30;22.83;;;13.40;;
22603;SDS011;11469;49.024;8.246;2023-01-19T00:52:56;32.97;;;13.25;;
22603;SDS011;11469;49.024;8.246;2023-01-19T00:55:25;27.05;;;14.90;;
22603;SDS011;11469;49.024;8.246;2023-01-19T00:57:52;24.90;;;13.82;;
22603;SDS011;11469;49.024;8.246;2023-01-19T01:00:18;24.95;;;13.65;;
22603;SDS011;11469;49.024;8.246;2023-01-19T01:02:45;26.08;;;14.25;;
22603;SDS011;11469;49.024;8.246;2023-01-19T01:05:11;26.88;;;13.48;;
22603;SDS011;11469;49.024;8.246;2023-01-19T01:07:37;25.90;;;13.52;;
22603;SDS011;11469;49.024;8.246;2023-01-19T01:10:12;25.98;;;14.38;;
22603;SDS011;11469;49.024;8.246;2023-01-19T01:12:40;28.67;;;14.30;;
22603;SDS011;11469;49.024;8.246;2023-01-19T01:15:07;26.77;;;13.73;;
22603;SDS011;11469;49.024;8.246;2023-01-19T01:17:34;34.08;;;13.60;;
22603;SDS011;11469;49.024;8.246;2023-01-19T01:20:00;30.77;;;13.43;;
22603;SDS011;11469;49.024;8.246;2023-01-19T01:22:26;24.02;;;12.52;;
22603;SDS011;11469;49.024;8.246;2023-01-19T01:24:51;28.85;;;12.38;;
22603;SDS011;11469;49.024;8.246;2023-01-19T01:27:17;28.83;;;13.93;;
22603;SDS011;11469;49.024;8.246;2023-01-19T01:29:42;26.10;;;14.02;;
22603;SDS011;11469;49.024;8.246;2023-01-19T01:32:11;27.27;;;14.35;;
22603;SDS011;11469;49.024;8.246;2023-01-19T01:34:37;22.88;;;13.25;;
22603;SDS011;11469;49.024;8.246;2023-01-19T01:37:02;21.65;;;12.68;;
22603;SDS011;11469;49.024;8.246;2023-01-19T01:39:28;26.70;;;13.57;;
22603;SDS011;11469;49.024;8.246;2023-01-19T01:41:53;25.00;;;13.65;;
22603;SDS011;11469;49.024;8.246;2023-01-19T01:45:06;29.27;;;12.95;;
22603;SDS011;11469;49.024;8.246;2023-01-19T01:47:16;24.40;;;12.80;;
22603;SDS011;11469;49.024;8.246;2023-01-19T01:52:37;31.05;;;14.18;;
22603;SDS011;11469;49.024;8.246;2023-01-19T01:55:08;25.45;;;13.15;;
22603;SDS011;11469;49.024;8.246;2023-01-19T01:57:35;30.88;;;15.05;;
22603;SDS011;11469;49.024;8.246;2023-01-19T02:00:03;31.42;;;15.02;;
22603;SDS011;11469;49.024;8.246;2023-01-19T02:02:30;25.83;;;13.57;;
22603;SDS011;11469;49.024;8.246;2023-01-19T02:10:41;32.25;;;16.08;;
22603;SDS011;11469;49.024;8.246;2023-01-19T02:13:27;27.58;;;15.15;;
22603;SDS011;11469;49.024;8.246;2023-01-19T02:15:55;28.52;;;15.95;;
22603;SDS011;11469;49.024;8.246;2023-01-19T02:18:27;31.48;;;14.77;;
22603;SDS011;11469;49.024;8.246;2023-01-19T02:26:14;30.30;;;15.80;;
22603;SDS011;11469;49.024;8.246;2023-01-19T02:28:44;30.13;;;16.45;;
22603;SDS011;11469;49.024;8.246;2023-01-19T02:31:13;32.63;;;16.88;;
22603;SDS011;11469;49.024;8.246;2023-01-19T02:33:39;32.42;;;17.17;;
22603;SDS011;11469;49.024;8.246;2023-01-19T02:36:05;35.80;;;16.60;;
22603;SDS011;11469;49.024;8.246;2023-01-19T02:38:33;28.90;;;15.73;;
22603;SDS011;11469;49.024;8.246;2023-01-19T02:41:01;35.08;;;17.80;;
22603;SDS011;11469;49.024;8.246;2023-01-19T02:43:30;34.45;;;18.27;;
22603;SDS011;11469;49.024;8.246;2023-01-19T02:45:57;34.83;;;17.65;;
22603;SDS011;11469;49.024;8.246;2023-01-19T02:48:23;33.97;;;17.17;;
22603;SDS011;11469;49.024;8.246;2023-01-19T02:50:52;33.67;;;18.48;;
22603;SDS011;11469;49.024;8.246;2023-01-19T02:53:46;30.60;;;17.67;;
22603;SDS011;11469;49.024;8.246;2023-01-19T03:10:07;32.17;;;17.27;;
22603;SDS011;11469;49.024;8.246;2023-01-19T03:12:46;33.10;;;17.42;;
22603;SDS011;11469;49.024;8.246;2023-01-19T03:17:52;31.25;;;16.92;;
22603;SDS011;11469;49.024;8.246;2023-01-19T03:20:20;31.55;;;18.23;;
22603;SDS011;11469;49.024;8.246;2023-01-19T03:22:50;32.55;;;17.42;;
22603;SDS011;11469;49.024;8.246;2023-01-19T03:25:19;35.17;;;16.92;;
22603;SDS011;11469;49.024;8.246;2023-01-19T03:27:47;40.25;;;18.95;;
22603;SDS011;11469;49.024;8.246;2023-01-19T03:30:19;37.17;;;18.92;;
22603;SDS011;11469;49.024;8.246;2023-01-19T03:32:50;32.47;;;17.60;;
22603;SDS011;11469;49.024;8.246;2023-01-19T03:35:21;38.88;;;19.20;;
22603;SDS011;11469;49.024;8.246;2023-01-19T03:37:49;34.83;;;18.17;;
22603;SDS011;11469;49.024;8.246;2023-01-19T03:40:18;35.92;;;18.05;;
22603;SDS011;11469;49.024;8.246;2023-01-19T03:42:45;39.20;;;19.63;;
22603;SDS011;11469;49.024;8.246;2023-01-19T03:45:12;37.50;;;19.67;;
22603;SDS011;11469;49.024;8.246;2023-01-19T03:47:39;34.67;;;19.25;;
22603;SDS011;11469;49.024;8.246;2023-01-19T03:50:05;33.22;;;17.50;;
22603;SDS011;11469;49.024;8.246;2023-01-19T03:52:37;34.30;;;18.27;;
22603;SDS011;11469;49.024;8.246;2023-01-19T03:55:03;36.03;;;19.10;;
22603;SDS011;11469;49.024;8.246;2023-01-19T03:57:30;35.53;;;17.70;;
22603;SDS011;11469;49.024;8.246;2023-01-19T03:59:56;33.72;;;19.10;;
22603;SDS011;11469;49.024;8.246;2023-01-19T04:02:22;35.97;;;19.27;;
22603;SDS011;11469;49.024;8.246;2023-01-19T04:04:48;40.95;;;19.40;;
22603;SDS011;11469;49.024;8.246;2023-01-19T04:07:13;35.75;;;19.63;;
22603;SDS011;11469;49.024;8.246;2023-01-19T04:09:39;36.60;;;18.98;;
22603;SDS011;11469;49.024;8.246;2023-01-19T04:12:04;32.22;;;17.35;;
22603;SDS011;11469;49.024;8.246;2023-01-19T04:14:30;34.80;;;19.95;;
22603;SDS011;11469;49.024;8.246;2023-01-19T04:16:55;34.42;;;19.15;;
22603;SDS011;11469;49.024;8.246;2023-01-19T04:19:20;36.60;;;18.45;;
22603;SDS011;11469;49.024;8.246;2023-01-19T04:21:49;32.72;;;19.00;;
22603;SDS011;11469;49.024;8.246;2023-01-19T04:24:15;39.75;;;19.60;;
22603;SDS011;11469;49.024;8.246;2023-01-19T04:26:41;38.08;;;19.42;;
22603;SDS011;11469;49.024;8.246;2023-01-19T04:29:07;37.58;;;19.35;;
22603;SDS011;11469;49.024;8.246;2023-01-19T04:31:33;34.65;;;18.55;;
22603;SDS011;11469;49.024;8.246;2023-01-19T04:33:59;34.10;;;19.35;;
22603;SDS011;11469;49.024;8.246;2023-01-19T04:36:25;37.85;;;19.77;;
22603;SDS011;11469;49.024;8.246;2023-01-19T04:38:52;34.22;;;19.58;;
22603;SDS011;11469;49.024;8.246;2023-01-19T04:41:17;37.28;;;20.17;;
22603;SDS011;11469;49.024;8.246;2023-01-19T04:43:42;39.22;;;19.52;;
22603;SDS011;11469;49.024;8.246;2023-01-19T04:46:08;39.83;;;19.05;;
22603;SDS011;11469;49.024;8.246;2023-01-19T04:48:33;37.25;;;19.92;;
22603;SDS011;11469;49.024;8.246;2023-01-19T04:50:59;40.67;;;19.85;;
22603;SDS011;11469;49.024;8.246;2023-01-19T04:53:24;38.40;;;19.95;;
22603;SDS011;11469;49.024;8.246;2023-01-19T04:55:53;37.47;;;20.02;;
22603;SDS011;11469;49.024;8.246;2023-01-19T04:58:19;37.00;;;20.95;;
22603;SDS011;11469;49.024;8.246;2023-01-19T05:00:44;40.10;;;20.15;;
22603;SDS011;11469;49.024;8.246;2023-01-19T05:03:10;39.30;;;19.80;;
22603;SDS011;11469;49.024;8.246;2023-01-19T05:05:35;36.53;;;20.00;;
22603;SDS011;11469;49.024;8.246;2023-01-19T05:08:01;37.72;;;19.75;;
22603;SDS011;11469;49.024;8.246;2023-01-19T05:10:26;35.58;;;19.83;;
22603;SDS011;11469;49.024;8.246;2023-01-19T05:12:52;39.40;;;19.00;;
22603;SDS011;11469;49.024;8.246;2023-01-19T05:15:17;35.15;;;19.42;;
22603;SDS011;11469;49.024;8.246;2023-01-19T05:17:42;36.97;;;19.65;;
22603;SDS011;11469;49.024;8.246;2023-01-19T05:20:09;37.55;;;20.75;;
22603;SDS011;11469;49.024;8.246;2023-01-19T05:22:35;37.75;;;19.35;;
22603;SDS011;11469;49.024;8.246;2023-01-19T05:25:01;38.92;;;19.95;;
22603;SDS011;11469;49.024;8.246;2023-01-19T05:27:26;37.10;;;18.83;;
22603;SDS011;11469;49.024;8.246;2023-01-19T05:29:52;39.53;;;18.38;;
22603;SDS011;11469;49.024;8.246;2023-01-19T05:32:17;35.72;;;18.90;;
22603;SDS011;11469;49.024;8.246;2023-01-19T05:34:42;34.80;;;17.58;;
22603;SDS011;11469;49.024;8.246;2023-01-19T05:37:08;35.10;;;17.90;;
22603;SDS011;11469;49.024;8.246;2023-01-19T05:39:33;37.45;;;17.77;;
22603;SDS011;11469;49.024;8.246;2023-01-19T05:41:58;30.65;;;16.92;;
22603;SDS011;11469;49.024;8.246;2023-01-19T05:44:24;37.97;;;17.95;;
22603;SDS011;11469;49.024;8.246;2023-01-19T05:46:50;29.92;;;16.52;;
22603;SDS011;11469;49.024;8.246;2023-01-19T05:49:15;29.52;;;15.88;;
22603;SDS011;11469;49.024;8.246;2023-01-19T05:51:41;34.88;;;16.52;;
22603;SDS011;11469;49.024;8.246;2023-01-19T05:54:10;37.65;;;18.70;;
22603;SDS011;11469;49.024;8.246;2023-01-19T05:56:37;31.25;;;16.05;;
22603;SDS011;11469;49.024;8.246;2023-01-19T05:59:03;36.80;;;16.60;;
22603;SDS011;11469;49.024;8.246;2023-01-19T06:01:29;35.05;;;17.27;;
22603;SDS011;11469;49.024;8.246;2023-01-19T06:03:54;26.88;;;16.05;;
22603;SDS011;11469;49.024;8.246;2023-01-19T06:06:20;38.72;;;16.42;;
22603;SDS011;11469;49.024;8.246;2023-01-19T06:08:45;30.25;;;15.93;;
22603;SDS011;11469;49.024;8.246;2023-01-19T06:11:11;31.60;;;16.67;;
22603;SDS011;11469;49.024;8.246;2023-01-19T06:13:36;33.92;;;16.95;;
22603;SDS011;11469;49.024;8.246;2023-01-19T06:16:04;34.83;;;16.90;;
22603;SDS011;11469;49.024;8.246;2023-01-19T06:18:30;32.80;;;16.38;;
22603;SDS011;11469;49.024;8.246;2023-01-19T06:20:56;34.83;;;17.67;;
22603;SDS011;11469;49.024;8.246;2023-01-19T06:23:24;29.20;;;16.52;;
22603;SDS011;11469;49.024;8.246;2023-01-19T06:25:50;38.45;;;19.77;;
22603;SDS011;11469;49.024;8.246;2023-01-19T06:28:16;31.80;;;16.83;;
22603;SDS011;11469;49.024;8.246;2023-01-19T06:30:44;35.85;;;16.17;;
22603;SDS011;11469;49.024;8.246;2023-01-19T06:33:12;36.22;;;16.70;;
22603;SDS011;11469;49.024;8.246;2023-01-19T06:35:38;31.90;;;15.27;;
22603;SDS011;11469;49.024;8.246;2023-01-19T06:38:03;29.55;;;15.98;;
22603;SDS011;11469;49.024;8.246;2023-01-19T06:40:28;34.92;;;16.52;;
22603;SDS011;11469;49.024;8.246;2023-01-19T06:42:54;36.15;;;16.83;;
22603;SDS011;11469;49.024;8.246;2023-01-19T06:45:19;35.15;;;16.73;;
22603;SDS011;11469;49.024;8.246;2023-01-19T06:47:46;30.42;;;17.02;;
22603;SDS011;11469;49.024;8.246;2023-01-19T06:50:11;32.05;;;16.02;;
22603;SDS011;11469;49.024;8.246;2023-01-19T06:52:37;32.22;;;17.60;;
22603;SDS011;11469;49.024;8.246;2023-01-19T06:55:06;28.00;;;15.43;;
22603;SDS011;11469;49.024;8.246;2023-01-19T06:57:34;33.28;;;17.45;;
22603;SDS011;11469;49.024;8.246;2023-01-19T07:00:04;36.70;;;16.50;;
22603;SDS011;11469;49.024;8.246;2023-01-19T07:02:35;32.22;;;16.52;;
22603;SDS011;11469;49.024;8.246;2023-01-19T07:05:01;29.40;;;16.80;;
22603;SDS011;11469;49.024;8.246;2023-01-19T07:07:27;29.83;;;16.67;;
22603;SDS011;11469;49.024;8.246;2023-01-19T07:09:52;33.78;;;17.45;;
22603;SDS011;11469;49.024;8.246;2023-01-19T07:12:17;29.88;;;16.63;;
22603;SDS011;11469;49.024;8.246;2023-01-19T07:14:43;35.15;;;16.13;;
22603;SDS011;11469;49.024;8.246;2023-01-19T07:17:08;32.72;;;15.32;;
22603;SDS011;11469;49.024;8.246;2023-01-19T07:19:34;30.85;;;16.05;;
22603;SDS011;11469;49.024;8.246;2023-01-19T07:22:00;31.60;;;15.98;;
22603;SDS011;11469;49.024;8.246;2023-01-19T07:24:27;35.75;;;16.85;;
22603;SDS011;11469;49.024;8.246;2023-01-19T07:26:54;31.70;;;16.67;;
22603;SDS011;11469;49.024;8.246;2023-01-19T07:29:20;27.67;;;15.48;;
22603;SDS011;11469;49.024;8.246;2023-01-19T07:31:45;31.17;;;15.70;;
22603;SDS011;11469;49.024;8.246;2023-01-19T07:34:12;26.85;;;14.80;;
22603;SDS011;11469;49.024;8.246;2023-01-19T07:36:38;27.77;;;15.52;;
22603;SDS011;11469;49.024;8.246;2023-01-19T07:39:03;28.67;;;14.38;;
22603;SDS011;11469;49.024;8.246;2023-01-19T07:41:29;26.83;;;14.85;;
22603;SDS011;11469;49.024;8.246;2023-01-19T07:43:54;28.75;;;14.77;;
22603;SDS011;11469;49.024;8.246;2023-01-19T07:46:19;26.92;;;14.50;;
22603;SDS011;11469;49.024;8.246;2023-01-19T07:48:45;28.67;;;14.27;;
22603;SDS011;11469;49.024;8.246;2023-01-19T07:51:11;25.38;;;13.35;;
22603;SDS011;11469;49.024;8.246;2023-01-19T07:53:41;21.00;;;12.60;;
22603;SDS011;11469;49.024;8.246;2023-01-19T07:56:07;27.08;;;13.57;;
22603;SDS011;11469;49.024;8.246;2023-01-19T07:58:34;25.10;;;12.90;;
22603;SDS011;11469;49.024;8.246;2023-01-19T08:00:59;26.10;;;12.50;;
22603;SDS011;11469;49.024;8.246;2023-01-19T08:03:24;24.67;;;13.18;;
22603;SDS011;11469;49.024;8.246;2023-01-19T08:05:50;26.75;;;13.35;;
22603;SDS011;11469;49.024;8.246;2023-01-19T08:08:17;24.90;;;11.77;;
22603;SDS011;11469;49.024;8.246;2023-01-19T08:10:42;26.27;;;12.80;;
22603;SDS011;11469;49.024;8.246;2023-01-19T08:13:08;24.80;;;12.73;;
22603;SDS011;11469;49.024;8.246;2023-01-19T08:15:33;24.30;;;12.68;;
22603;SDS011;11469;49.024;8.246;2023-01-19T08:18:00;24.15;;;12.13;;
22603;SDS011;11469;49.024;8.246;2023-01-19T08:20:29;24.52;;;13.13;;
22603;SDS011;11469;49.024;8.246;2023-01-19T08:22:56;24.95;;;12.07;;
22603;SDS011;11469;49.024;8.246;2023-01-19T08:25:36;24.02;;;12.77;;
22603;SDS011;11469;49.024;8.246;2023-01-19T08:28:12;24.50;;;12.60;;
22603;SDS011;11469;49.024;8.246;2023-01-19T08:30:38;21.65;;;12.57;;
22603;SDS011;11469;49.024;8.246;2023-01-19T08:33:05;31.42;;;12.63;;
22603;SDS011;11469;49.024;8.246;2023-01-19T08:35:35;30.65;;;13.05;;
22603;SDS011;11469;49.024;8.246;2023-01-19T08:38:02;23.70;;;12.95;;
22603;SDS011;11469;49.024;8.246;2023-01-19T08:40:29;26.00;;;12.30;;
22603;SDS011;11469;49.024;8.246;2023-01-19T08:42:59;24.20;;;11.18;;
22603;SDS011;11469;49.024;8.246;2023-01-19T08:45:27;26.27;;;13.07;;
22603;SDS011;11469;49.024;8.246;2023-01-19T08:47:55;23.42;;;12.80;;
22603;SDS011;11469;49.024;8.246;2023-01-19T08:50:27;22.73;;;12.40;;
22603;SDS011;11469;49.024;8.246;2023-01-19T08:52:54;24.73;;;12.93;;
22603;SDS011;11469;49.024;8.246;2023-01-19T08:55:23;21.92;;;13.02;;
22603;SDS011;11469;49.024;8.246;2023-01-19T08:57:50;23.92;;;12.40;;
22603;SDS011;11469;49.024;8.246;2023-01-19T09:00:17;22.70;;;12.35;;
22603;SDS011;11469;49.024;8.246;2023-01-19T09:02:43;26.08;;;13.70;;
22603;SDS011;11469;49.024;8.246;2023-01-19T09:05:09;25.00;;;12.88;;
22603;SDS011;11469;49.024;8.246;2023-01-19T09:07:34;27.58;;;13.07;;
22603;SDS011;11469;49.024;8.246;2023-01-19T09:10:02;23.35;;;12.35;;
22603;SDS011;11469;49.024;8.246;2023-01-19T09:12:31;25.15;;;12.18;;
22603;SDS011;11469;49.024;8.246;2023-01-19T09:14:56;27.23;;;12.07;;
22603;SDS011;11469;49.024;8.246;2023-01-19T09:17:22;22.55;;;12.07;;
22603;SDS011;11469;49.024;8.246;2023-01-19T09:19:47;19.50;;;11.35;;
22603;SDS011;11469;49.024;8.246;2023-01-19T09:22:13;24.85;;;12.95;;
22603;SDS011;11469;49.024;8.246;2023-01-19T09:24:38;24.75;;;11.25;;
22603;SDS011;11469;49.024;8.246;2023-01-19T09:27:04;26.02;;;12.70;;
22603;SDS011;11469;49.024;8.246;2023-01-19T09:29:29;20.67;;;11.63;;
22603;SDS011;11469;49.024;8.246;2023-01-19T09:31:54;20.65;;;12.05;;
22603;SDS011;11469;49.024;8.246;2023-01-19T09:34:21;24.08;;;11.95;;
22603;SDS011;11469;49.024;8.246;2023-01-19T09:36:49;22.33;;;11.70;;
22603;SDS011;11469;49.024;8.246;2023-01-19T09:39:15;23.15;;;12.05;;
22603;SDS011;11469;49.024;8.246;2023-01-19T09:41:40;20.08;;;11.25;;
22603;SDS011;11469;49.024;8.246;2023-01-19T09:44:19;23.20;;;12.30;;
22603;SDS011;11469;49.024;8.246;2023-01-19T09:46:52;23.60;;;12.23;;
22603;SDS011;11469;49.024;8.246;2023-01-19T09:49:31;28.83;;;12.32;;
22603;SDS011;11469;49.024;8.246;2023-01-19T09:52:00;22.40;;;11.15;;
22603;SDS011;11469;49.024;8.246;2023-01-19T09:54:30;22.95;;;11.93;;
22603;SDS011;11469;49.024;8.246;2023-01-19T09:57:08;29.70;;;11.00;;
22603;SDS011;11469;49.024;8.246;2023-01-19T09:59:36;23.65;;;11.68;;
22603;SDS011;11469;49.024;8.246;2023-01-19T10:05:01;19.45;;;10.85;;
22603;SDS011;11469;49.024;8.246;2023-01-19T10:08:08;25.58;;;12.60;;
22603;SDS011;11469;49.024;8.246;2023-01-19T10:10:38;19.33;;;11.43;;
22603;SDS011;11469;49.024;8.246;2023-01-19T10:16:02;25.67;;;11.93;;
22603;SDS011;11469;49.024;8.246;2023-01-19T10:23:50;22.42;;;12.13;;
22603;SDS011;11469;49.024;8.246;2023-01-19T10:26:35;23.55;;;12.27;;
22603;SDS011;11469;49.024;8.246;2023-01-19T10:29:09;23.87;;;11.77;;
22603;SDS011;11469;49.024;8.246;2023-01-19T10:31:38;22.13;;;11.98;;
22603;SDS011;11469;49.024;8.246;2023-01-19T10:34:06;21.88;;;11.70;;
22603;SDS011;11469;49.024;8.246;2023-01-19T10:36:37;23.38;;;12.55;;
22603;SDS011;11469;49.024;8.246;2023-01-19T10:39:05;20.48;;;11.85;;
22603;SDS011;11469;49.024;8.246;2023-01-19T10:44:49;24.48;;;12.98;;
22603;SDS011;11469;49.024;8.246;2023-01-19T10:47:16;28.50;;;13.13;;
22603;SDS011;11469;49.024;8.246;2023-01-19T10:49:42;24.52;;;12.90;;
22603;SDS011;11469;49.024;8.246;2023-01-19T10:54:58;30.27;;;13.43;;
22603;SDS011;11469;49.024;8.246;2023-01-19T10:57:35;24.02;;;12.77;;
22603;SDS011;11469;49.024;8.246;2023-01-19T11:00:04;22.05;;;11.93;;
22603;SDS011;11469;49.024;8.246;2023-01-19T11:02:31;23.52;;;11.85;;
22603;SDS011;11469;49.024;8.246;2023-01-19T11:04:58;26.80;;;13.55;;
22603;SDS011;11469;49.024;8.246;2023-01-19T11:07:43;22.73;;;12.48;;
22603;SDS011;11469;49.024;8.246;2023-01-19T11:12:41;30.58;;;13.20;;
22603;SDS011;11469;49.024;8.246;2023-01-19T11:15:19;26.50;;;12.93;;
22603;SDS011;11469;49.024;8.246;2023-01-19T11:17:47;25.55;;;12.07;;
22603;SDS011;11469;49.024;8.246;2023-01-19T11:20:21;21.88;;;12.18;;
22603;SDS011;11469;49.024;8.246;2023-01-19T11:23:02;22.67;;;11.57;;
22603;SDS011;11469;49.024;8.246;2023-01-19T11:25:31;25.23;;;12.05;;
22603;SDS011;11469;49.024;8.246;2023-01-19T11:27:59;26.73;;;12.25;;
22603;SDS011;11469;49.024;8.246;2023-01-19T11:30:25;19.17;;;11.63;;
22603;SDS011;11469;49.024;8.246;2023-01-19T11:32:51;25.85;;;11.95;;
22603;SDS011;11469;49.024;8.246;2023-01-19T11:35:30;27.45;;;12.05;;
22603;SDS011;11469;49.024;8.246;2023-01-19T11:40:50;21.48;;;12.02;;
22603;SDS011;11469;49.024;8.246;2023-01-19T11:43:18;24.17;;;11.48;;
22603;SDS011;11469;49.024;8.246;2023-01-19T11:45:46;21.70;;;10.70;;
22603;SDS011;11469;49.024;8.246;2023-01-19T11:48:14;22.98;;;12.35;;
22603;SDS011;11469;49.024;8.246;2023-01-19T11:50:47;19.75;;;11.05;;
22603;SDS011;11469;49.024;8.246;2023-01-19T11:53:16;21.77;;;10.68;;
22603;SDS011;11469;49.024;8.246;2023-01-19T11:55:55;27.65;;;11.13;;
22603;SDS011;11469;49.024;8.246;2023-01-19T11:58:26;26.90;;;11.07;;
22603;SDS011;11469;49.024;8.246;2023-01-19T12:01:01;22.70;;;11.23;;
22603;SDS011;11469;49.024;8.246;2023-01-19T12:06:02;21.50;;;11.07;;
22603;SDS011;11469;49.024;8.246;2023-01-19T12:08:42;21.50;;;11.00;;
22603;SDS011;11469;49.024;8.246;2023-01-19T12:11:12;32.38;;;12.07;;
22603;SDS011;11469;49.024;8.246;2023-01-19T12:13:43;24.83;;;11.07;;
22603;SDS011;11469;49.024;8.246;2023-01-19T12:16:16;20.48;;;11.48;;
22603;SDS011;11469;49.024;8.246;2023-01-19T12:24:10;28.33;;;10.57;;
22603;SDS011;11469;49.024;8.246;2023-01-19T12:26:47;28.67;;;11.43;;
22603;SDS011;11469;49.024;8.246;2023-01-19T12:29:17;19.48;;;10.50;;
22603;SDS011;11469;49.024;8.246;2023-01-19T12:32:14;20.85;;;10.50;;
22603;SDS011;11469;49.024;8.246;2023-01-19T12:34:41;20.02;;;10.73;;
22603;SDS011;11469;49.024;8.246;2023-01-19T12:39:52;23.20;;;11.07;;
22603;SDS011;11469;49.024;8.246;2023-01-19T12:42:20;23.05;;;11.10;;
22603;SDS011;11469;49.024;8.246;2023-01-19T12:44:46;22.13;;;11.20;;
22603;SDS011;11469;49.024;8.246;2023-01-19T12:54:37;24.92;;;11.23;;
22603;SDS011;11469;49.024;8.246;2023-01-19T12:57:08;24.95;;;11.57;;
22603;SDS011;11469;49.024;8.246;2023-01-19T12:59:46;27.08;;;11.68;;
22603;SDS011;11469;49.024;8.246;2023-01-19T13:10:53;20.38;;;10.73;;
22603;SDS011;11469;49.024;8.246;2023-01-19T13:13:35;18.77;;;10.57;;
22603;SDS011;11469;49.024;8.246;2023-01-19T13:21:32;20.90;;;10.77;;
22603;SDS011;11469;49.024;8.246;2023-01-19T13:26:27;26.42;;;13.07;;
22603;SDS011;11469;49.024;8.246;2023-01-19T13:28:59;26.20;;;12.18;;
22603;SDS011;11469;49.024;8.246;2023-01-19T13:31:34;20.80;;;9.77;;
22603;SDS011;11469;49.024;8.246;2023-01-19T13:34:01;18.13;;;9.75;;
22603;SDS011;11469;49.024;8.246;2023-01-19T13:36:32;22.33;;;11.20;;
22603;SDS011;11469;49.024;8.246;2023-01-19T13:39:06;22.88;;;11.50;;
22603;SDS011;11469;49.024;8.246;2023-01-19T13:41:38;20.77;;;11.25;;
22603;SDS011;11469;49.024;8.246;2023-01-19T13:46:44;18.23;;;9.88;;
22603;SDS011;11469;49.024;8.246;2023-01-19T13:49:34;19.30;;;9.30;;
22603;SDS011;11469;49.024;8.246;2023-01-19T13:52:12;15.45;;;8.77;;
22603;SDS011;11469;49.024;8.246;2023-01-19T13:54:47;14.95;;;7.93;;
22603;SDS011;11469;49.024;8.246;2023-01-19T14:02:39;17.30;;;7.63;;
22603;SDS011;11469;49.024;8.246;2023-01-19T14:10:41;15.00;;;7.30;;
22603;SDS011;11469;49.024;8.246;2023-01-19T14:13:33;13.52;;;7.45;;
22603;SDS011;11469;49.024;8.246;2023-01-19T14:16:05;14.07;;;7.28;;
22603;SDS011;11469;49.024;8.246;2023-01-19T14:18:33;14.73;;;6.65;;
22603;SDS011;11469;49.024;8.246;2023-01-19T14:21:10;14.10;;;6.50;;
22603;SDS011;11469;49.024;8.246;2023-01-19T14:29:31;12.77;;;6.35;;
22603;SDS011;11469;49.024;8.246;2023-01-19T14:32:15;16.00;;;6.65;;
22603;SDS011;11469;49.024;8.246;2023-01-19T14:35:10;13.98;;;6.80;;
22603;SDS011;11469;49.024;8.246;2023-01-19T14:37:43;17.83;;;7.00;;
22603;SDS011;11469;49.024;8.246;2023-01-19T14:47:45;8.20;;;4.82;;
22603;SDS011;11469;49.024;8.246;2023-01-19T14:53:19;8.63;;;3.60;;
22603;SDS011;11469;49.024;8.246;2023-01-19T14:55:52;9.27;;;4.93;;
22603;SDS011;11469;49.024;8.246;2023-01-19T14:58:21;12.88;;;4.97;;
22603;SDS011;11469;49.024;8.246;2023-01-19T15:00:49;7.90;;;4.15;;
22603;SDS011;11469;49.024;8.246;2023-01-19T15:03:15;11.27;;;4.60;;
22603;SDS011;11469;49.024;8.246;2023-01-19T15:05:41;10.93;;;4.53;;
22603;SDS011;11469;49.024;8.246;2023-01-19T15:08:28;10.23;;;5.05;;
22603;SDS011;11469;49.024;8.246;2023-01-19T15:10:55;12.13;;;5.50;;
22603;SDS011;11469;49.024;8.246;2023-01-19T15:13:22;12.65;;;5.60;;
22603;SDS011;11469;49.024;8.246;2023-01-19T15:15:51;11.65;;;6.22;;
22603;SDS011;11469;49.024;8.246;2023-01-19T15:18:26;10.75;;;5.45;;
22603;SDS011;11469;49.024;8.246;2023-01-19T15:20:52;13.40;;;6.50;;
22603;SDS011;11469;49.024;8.246;2023-01-19T15:23:19;15.95;;;7.18;;
22603;SDS011;11469;49.024;8.246;2023-01-19T15:25:44;24.52;;;8.13;;
22603;SDS011;11469;49.024;8.246;2023-01-19T15:28:10;19.80;;;7.90;;
22603;SDS011;11469;49.024;8.246;2023-01-19T15:30:37;19.98;;;8.38;;
22603;SDS011;11469;49.024;8.246;2023-01-19T15:33:03;18.27;;;8.43;;
22603;SDS011;11469;49.024;8.246;2023-01-19T15:35:29;19.02;;;9.65;;
22603;SDS011;11469;49.024;8.246;2023-01-19T15:37:54;17.67;;;8.75;;
22603;SDS011;11469;49.024;8.246;2023-01-19T15:40:20;18.15;;;8.77;;
22603;SDS011;11469;49.024;8.246;2023-01-19T15:42:47;24.30;;;9.10;;
22603;SDS011;11469;49.024;8.246;2023-01-19T15:47:57;15.85;;;8.43;;
22603;SDS011;11469;49.024;8.246;2023-01-19T15:50:23;16.65;;;8.82;;
22603;SDS011;11469;49.024;8.246;2023-01-19T15:52:50;17.88;;;9.27;;
22603;SDS011;11469;49.024;8.246;2023-01-19T15:55:16;16.73;;;8.80;;
22603;SDS011;11469;49.024;8.246;2023-01-19T15:57:41;19.45;;;8.82;;
22603;SDS011;11469;49.024;8.246;2023-01-19T16:00:07;17.27;;;8.30;;
22603;SDS011;11469;49.024;8.246;2023-01-19T16:02:34;20.48;;;9.50;;
22603;SDS011;11469;49.024;8.246;2023-01-19T16:05:00;23.08;;;11.27;;
22603;SDS011;11469;49.024;8.246;2023-01-19T16:07:25;31.65;;;13.00;;
22603;SDS011;11469;49.024;8.246;2023-01-19T16:09:50;24.02;;;11.32;;
22603;SDS011;11469;49.024;8.246;2023-01-19T16:12:16;23.60;;;10.30;;
22603;SDS011;11469;49.024;8.246;2023-01-19T16:14:41;26.40;;;10.68;;
22603;SDS011;11469;49.024;8.246;2023-01-19T16:17:06;25.02;;;9.50;;
22603;SDS011;11469;49.024;8.246;2023-01-19T16:19:32;24.73;;;10.75;;
22603;SDS011;11469;49.024;8.246;2023-01-19T16:21:57;20.98;;;10.18;;
22603;SDS011;11469;49.024;8.246;2023-01-19T16:24:22;20.67;;;9.68;;
22603;SDS011;11469;49.024;8.246;2023-01-19T16:26:48;19.13;;;9.80;;
22603;SDS011;11469;49.024;8.246;2023-01-19T16:29:13;18.08;;;9.68;;
22603;SDS011;11469;49.024;8.246;2023-01-19T16:31:39;22.42;;;11.10;;